sensor_id;sensor_type;location;lat;lon;timestamp;pressure;altitude;pressure_sealevel;temperature;humidity
43741;BME280;29352;48.708;9.290;2023-01-31T00:01:24;98736.00;;;-5.13;85.28
43741;BME280;29352;48.708;9.290;2023-01-31T00:03:53;98736.13;;;-5.14;85.59
43741;BME280;29352;48.708;9.290;2023-01-31T00:06:23;98736.97;;;-5.28;86.11
43741;BME280;29352;48.708;9.290;2023-01-31T00:08:52;98743.94;;;-5.29;86.08
43741;BME280;29352;48.708;9.290;2023-01-31T00:11:21;98732.69;;;-5.15;85.53
43741;BME280;29352;48.708;9.290;2023-01-31T00:13:48;98735.00;;;-5.25;85.73
43741;BME280;29352;48.708;9.290;2023-01-31T00:16:15;98730.34;;;-5.19;85.44
43741;BME280;29352;48.708;9.290;2023-01-31T00:18:42;98733.72;;;-5.32;85.73
43741;BME280;29352;48.708;9.290;2023-01-31T00:21:13;98720.16;;;-5.37;85.62
43741;BME280;29352;48.708;9.290;2023-01-31T00:23:43;98726.31;;;-5.52;85.85
43741;BME280;29352;48.708;9.290;2023-01-31T00:26:16;98723.25;;;-5.59;86.37
43741;BME280;29352;48.708;9.290;2023-01-31T00:28:55;98730.00;;;-5.28;85.36
43741;BME280;29352;48.708;9.290;2023-01-31T00:31:24;98729.38;;;-5.45;85.29
43741;BME280;29352;48.708;9.290;2023-01-31T00:33:52;98722.03;;;-5.67;85.67
43741;BME280;29352;48.708;9.290;2023-01-31T00:36:22;98720.38;;;-5.68;86.06
43741;BME280;29352;48.708;9.290;2023-01-31T00:38:52;98714.03;;;-5.79;86.16
43741;BME280;29352;48.708;9.290;2023-01-31T00:41:21;98721.31;;;-5.84;86.10
43741;BME280;29352;48.708;9.290;2023-01-31T00:43:49;98720.91;;;-5.78;85.91
43741;BME280;29352;48.708;9.290;2023-01-31T00:46:15;98722.78;;;-5.80;85.44
43741;BME280;29352;48.708;9.290;2023-01-31T00:48:41;98724.44;;;-5.79;85.12
43741;BME280;29352;48.708;9.290;2023-01-31T00:51:07;98722.97;;;-5.97;85.98
43741;BME280;29352;48.708;9.290;2023-01-31T00:53:33;98726.69;;;-6.01;85.78
43741;BME280;29352;48.708;9.290;2023-01-31T00:56:07;98720.34;;;-5.97;85.98
43741;BME280;29352;48.708;9.290;2023-01-31T00:58:35;98720.44;;;-5.99;85.89
43741;BME280;29352;48.708;9.290;2023-01-31T01:01:13;98721.00;;;-5.93;85.56
43741;BME280;29352;48.708;9.290;2023-01-31T01:03:43;98723.78;;;-5.97;85.87
43741;BME280;29352;48.708;9.290;2023-01-31T01:06:10;98724.81;;;-5.99;85.70
43741;BME280;29352;48.708;9.290;2023-01-31T01:08:38;98719.97;;;-6.05;85.88
43741;BME280;29352;48.708;9.290;2023-01-31T01:11:05;98718.66;;;-6.12;86.37
43741;BME280;29352;48.708;9.290;2023-01-31T01:13:42;98721.53;;;-6.03;86.34
43741;BME280;29352;48.708;9.290;2023-01-31T01:16:15;98719.53;;;-5.98;85.98
43741;BME280;29352;48.708;9.290;2023-01-31T01:18:44;98716.28;;;-6.01;86.07
43741;BME280;29352;48.708;9.290;2023-01-31T01:21:17;98725.28;;;-5.92;85.85
43741;BME280;29352;48.708;9.290;2023-01-31T01:23:48;98714.97;;;-5.94;85.78
43741;BME280;29352;48.708;9.290;2023-01-31T01:26:22;98720.06;;;-6.07;86.04
43741;BME280;29352;48.708;9.290;2023-01-31T01:28:51;98720.34;;;-5.97;85.49
43741;BME280;29352;48.708;9.290;2023-01-31T01:31:19;98723.25;;;-6.02;85.89
43741;BME280;29352;48.708;9.290;2023-01-31T01:33:46;98724.81;;;-5.99;85.34
43741;BME280;29352;48.708;9.290;2023-01-31T01:36:15;98719.06;;;-6.04;85.37
43741;BME280;29352;48.708;9.290;2023-01-31T01:38:44;98734.47;;;-5.87;84.94
43741;BME280;29352;48.708;9.290;2023-01-31T01:41:11;98727.31;;;-5.98;84.80
43741;BME280;29352;48.708;9.290;2023-01-31T01:43:55;98726.31;;;-5.81;84.39
43741;BME280;29352;48.708;9.290;2023-01-31T01:46:28;98721.94;;;-5.80;84.36
43741;BME280;29352;48.708;9.290;2023-01-31T01:49:30;98728.81;;;-5.65;83.77
43741;BME280;29352;48.708;9.290;2023-01-31T01:52:06;98731.13;;;-5.75;83.94
43741;BME280;29352;48.708;9.290;2023-01-31T01:54:51;98736.16;;;-5.57;83.78
43741;BME280;29352;48.708;9.290;2023-01-31T01:57:24;98728.63;;;-5.76;84.11
43741;BME280;29352;48.708;9.290;2023-01-31T02:00:19;98735.25;;;-5.71;84.27
43741;BME280;29352;48.708;9.290;2023-01-31T02:02:51;98725.75;;;-5.86;84.39
43741;BME280;29352;48.708;9.290;2023-01-31T02:05:29;98738.66;;;-5.84;84.59
43741;BME280;29352;48.708;9.290;2023-01-31T02:07:58;98737.16;;;-5.88;84.74
43741;BME280;29352;48.708;9.290;2023-01-31T02:13:28;98743.78;;;-5.68;84.42
43741;BME280;29352;48.708;9.290;2023-01-31T02:15:55;98745.81;;;-5.74;84.35
43741;BME280;29352;48.708;9.290;2023-01-31T02:18:23;98740.88;;;-5.78;84.85
43741;BME280;29352;48.708;9.290;2023-01-31T02:29:49;98738.75;;;-5.86;84.62
43741;BME280;29352;48.708;9.290;2023-01-31T02:39:27;98744.69;;;-5.98;84.90
43741;BME280;29352;48.708;9.290;2023-01-31T02:51:23;98756.81;;;-5.99;85.01
43741;BME280;29352;48.708;9.290;2023-01-31T02:54:14;98757.03;;;-6.02;85.58
43741;BME280;29352;48.708;9.290;2023-01-31T02:56:47;98759.84;;;-6.21;86.12
43741;BME280;29352;48.708;9.290;2023-01-31T02:59:21;98775.97;;;-6.00;85.99
43741;BME280;29352;48.708;9.290;2023-01-31T03:01:58;98779.50;;;-6.01;85.32
43741;BME280;29352;48.708;9.290;2023-01-31T03:04:31;98786.47;;;-6.01;85.67
43741;BME280;29352;48.708;9.290;2023-01-31T03:07:12;98784.00;;;-6.19;86.07
43741;BME280;29352;48.708;9.290;2023-01-31T03:12:26;98778.28;;;-5.95;85.16
43741;BME280;29352;48.708;9.290;2023-01-31T03:15:36;98776.16;;;-5.88;84.69
43741;BME280;29352;48.708;9.290;2023-01-31T03:18:37;98774.78;;;-5.94;84.68
43741;BME280;29352;48.708;9.290;2023-01-31T03:21:26;98774.00;;;-5.96;85.26
43741;BME280;29352;48.708;9.290;2023-01-31T03:24:04;98777.41;;;-5.65;83.83
43741;BME280;29352;48.708;9.290;2023-01-31T03:26:33;98776.75;;;-5.69;83.78
43741;BME280;29352;48.708;9.290;2023-01-31T03:29:02;98769.69;;;-5.67;83.32
43741;BME280;29352;48.708;9.290;2023-01-31T03:53:39;98786.78;;;-5.63;83.02
43741;BME280;29352;48.708;9.290;2023-01-31T03:56:26;98798.97;;;-5.49;82.73
43741;BME280;29352;48.708;9.290;2023-01-31T03:59:05;98785.84;;;-5.62;82.93
43741;BME280;29352;48.708;9.290;2023-01-31T04:01:40;98787.25;;;-5.56;82.77
43741;BME280;29352;48.708;9.290;2023-01-31T04:04:17;98783.63;;;-5.68;82.98
43741;BME280;29352;48.708;9.290;2023-01-31T04:06:48;98795.50;;;-5.64;82.93
43741;BME280;29352;48.708;9.290;2023-01-31T04:09:14;98798.97;;;-5.63;82.55
43741;BME280;29352;48.708;9.290;2023-01-31T04:11:41;98801.81;;;-5.68;83.34
43741;BME280;29352;48.708;9.290;2023-01-31T04:14:10;98814.16;;;-5.86;83.19
43741;BME280;29352;48.708;9.290;2023-01-31T04:16:36;98808.28;;;-5.89;84.28
43741;BME280;29352;48.708;9.290;2023-01-31T04:19:02;98806.53;;;-5.89;83.66
43741;BME280;29352;48.708;9.290;2023-01-31T04:21:27;98806.69;;;-5.92;83.87
43741;BME280;29352;48.708;9.290;2023-01-31T04:23:52;98819.31;;;-6.00;83.81
43741;BME280;29352;48.708;9.290;2023-01-31T04:26:18;98810.19;;;-6.07;84.25
43741;BME280;29352;48.708;9.290;2023-01-31T04:28:43;98806.66;;;-6.06;83.94
43741;BME280;29352;48.708;9.290;2023-01-31T04:31:09;98809.44;;;-6.09;83.97
43741;BME280;29352;48.708;9.290;2023-01-31T04:33:34;98811.66;;;-6.18;83.89
43741;BME280;29352;48.708;9.290;2023-01-31T04:36:00;98809.50;;;-6.25;84.17
43741;BME280;29352;48.708;9.290;2023-01-31T04:38:26;98812.00;;;-6.24;83.80
43741;BME280;29352;48.708;9.290;2023-01-31T04:40:51;98813.22;;;-6.45;84.80
43741;BME280;29352;48.708;9.290;2023-01-31T04:43:16;98804.44;;;-6.43;84.83
43741;BME280;29352;48.708;9.290;2023-01-31T04:45:42;98809.56;;;-6.57;85.06
43741;BME280;29352;48.708;9.290;2023-01-31T04:48:07;98818.28;;;-6.74;85.86
43741;BME280;29352;48.708;9.290;2023-01-31T04:50:33;98824.91;;;-6.84;85.65
43741;BME280;29352;48.708;9.290;2023-01-31T04:52:59;98816.75;;;-6.62;84.94
43741;BME280;29352;48.708;9.290;2023-01-31T04:55:24;98825.72;;;-6.68;84.68
43741;BME280;29352;48.708;9.290;2023-01-31T04:57:51;98827.22;;;-6.79;85.72
43741;BME280;29352;48.708;9.290;2023-01-31T05:00:17;98830.97;;;-6.85;85.90
43741;BME280;29352;48.708;9.290;2023-01-31T05:02:43;98824.91;;;-6.84;85.67
43741;BME280;29352;48.708;9.290;2023-01-31T05:05:09;98805.63;;;-6.80;85.70
43741;BME280;29352;48.708;9.290;2023-01-31T05:07:37;98808.78;;;-6.75;86.08
43741;BME280;29352;48.708;9.290;2023-01-31T05:10:04;98806.97;;;-6.73;85.84
43741;BME280;29352;48.708;9.290;2023-01-31T05:12:30;98803.03;;;-6.80;86.40
43741;BME280;29352;48.708;9.290;2023-01-31T05:14:55;98814.41;;;-6.67;86.26
43741;BME280;29352;48.708;9.290;2023-01-31T05:17:21;98814.59;;;-6.70;86.50
43741;BME280;29352;48.708;9.290;2023-01-31T05:19:54;98814.31;;;-6.49;86.49
43741;BME280;29352;48.708;9.290;2023-01-31T05:22:22;98819.47;;;-6.33;85.50
43741;BME280;29352;48.708;9.290;2023-01-31T05:24:48;98807.69;;;-6.39;85.73
43741;BME280;29352;48.708;9.290;2023-01-31T05:27:15;98821.00;;;-6.29;85.49
43741;BME280;29352;48.708;9.290;2023-01-31T05:29:41;98823.31;;;-6.25;85.28
43741;BME280;29352;48.708;9.290;2023-01-31T05:32:07;98812.88;;;-6.39;85.69
43741;BME280;29352;48.708;9.290;2023-01-31T05:34:32;98809.50;;;-6.25;85.86
43741;BME280;29352;48.708;9.290;2023-01-31T05:37:00;98819.97;;;-6.27;85.36
43741;BME280;29352;48.708;9.290;2023-01-31T05:39:26;98817.81;;;-6.34;85.97
43741;BME280;29352;48.708;9.290;2023-01-31T05:41:53;98820.84;;;-6.42;86.07
43741;BME280;29352;48.708;9.290;2023-01-31T05:44:19;98822.31;;;-6.22;85.43
43741;BME280;29352;48.708;9.290;2023-01-31T05:46:45;98826.53;;;-6.05;84.94
43741;BME280;29352;48.708;9.290;2023-01-31T05:49:11;98825.53;;;-6.03;84.61
43741;BME280;29352;48.708;9.290;2023-01-31T05:51:38;98822.06;;;-6.18;84.94
43741;BME280;29352;48.708;9.290;2023-01-31T05:54:05;98827.22;;;-6.02;84.58
43741;BME280;29352;48.708;9.290;2023-01-31T05:56:31;98827.94;;;-6.00;84.41
43741;BME280;29352;48.708;9.290;2023-01-31T05:58:57;98829.88;;;-6.03;84.36
43741;BME280;29352;48.708;9.290;2023-01-31T06:01:25;98835.84;;;-6.01;84.47
43741;BME280;29352;48.708;9.290;2023-01-31T06:03:51;98833.25;;;-6.01;83.85
43741;BME280;29352;48.708;9.290;2023-01-31T06:06:17;98830.38;;;-5.97;83.71
43741;BME280;29352;48.708;9.290;2023-01-31T06:08:43;98815.84;;;-6.15;84.34
43741;BME280;29352;48.708;9.290;2023-01-31T06:11:11;98825.63;;;-6.04;84.06
43741;BME280;29352;48.708;9.290;2023-01-31T06:13:38;98828.59;;;-5.96;83.64
43741;BME280;29352;48.708;9.290;2023-01-31T06:16:05;98833.00;;;-6.12;83.78
43741;BME280;29352;48.708;9.290;2023-01-31T06:18:31;98829.81;;;-6.02;83.19
43741;BME280;29352;48.708;9.290;2023-01-31T06:20:56;98836.97;;;-6.21;83.70
43741;BME280;29352;48.708;9.290;2023-01-31T06:23:22;98837.41;;;-6.29;83.85
43741;BME280;29352;48.708;9.290;2023-01-31T06:25:53;98837.41;;;-6.29;83.79
43741;BME280;29352;48.708;9.290;2023-01-31T06:28:20;98844.06;;;-6.39;84.42
43741;BME280;29352;48.708;9.290;2023-01-31T06:30:47;98845.38;;;-6.48;84.53
43741;BME280;29352;48.708;9.290;2023-01-31T06:33:13;98839.97;;;-6.59;84.94
43741;BME280;29352;48.708;9.290;2023-01-31T06:35:40;98843.22;;;-6.55;85.02
43741;BME280;29352;48.708;9.290;2023-01-31T06:38:06;98847.84;;;-6.60;84.79
43741;BME280;29352;48.708;9.290;2023-01-31T06:40:33;98842.56;;;-6.59;84.84
43741;BME280;29352;48.708;9.290;2023-01-31T06:43:01;98847.41;;;-6.69;84.85
43741;BME280;29352;48.708;9.290;2023-01-31T06:45:26;98841.13;;;-6.64;84.93
43741;BME280;29352;48.708;9.290;2023-01-31T06:47:52;98844.31;;;-6.59;85.16
43741;BME280;29352;48.708;9.290;2023-01-31T06:50:17;98851.50;;;-6.64;85.13
43741;BME280;29352;48.708;9.290;2023-01-31T06:52:43;98857.38;;;-6.61;84.60
43741;BME280;29352;48.708;9.290;2023-01-31T06:55:08;98849.50;;;-6.59;84.95
43741;BME280;29352;48.708;9.290;2023-01-31T06:57:34;98850.16;;;-6.72;84.94
43741;BME280;29352;48.708;9.290;2023-01-31T07:00:00;98856.88;;;-6.83;85.44
43741;BME280;29352;48.708;9.290;2023-01-31T07:02:26;98847.44;;;-6.84;85.65
43741;BME280;29352;48.708;9.290;2023-01-31T07:04:51;98843.50;;;-6.60;85.25
43741;BME280;29352;48.708;9.290;2023-01-31T07:07:20;98845.41;;;-6.95;85.26
43741;BME280;29352;48.708;9.290;2023-01-31T07:09:45;98848.94;;;-6.80;85.03
43741;BME280;29352;48.708;9.290;2023-01-31T07:12:10;98850.34;;;-6.75;85.46
43741;BME280;29352;48.708;9.290;2023-01-31T07:14:36;98837.16;;;-6.40;84.79
43741;BME280;29352;48.708;9.290;2023-01-31T07:17:02;98836.53;;;-5.83;82.38
43741;BME280;29352;48.708;9.290;2023-01-31T07:19:27;98833.09;;;-5.39;81.92
43741;BME280;29352;48.708;9.290;2023-01-31T07:21:53;98833.00;;;-4.68;79.04
43741;BME280;29352;48.708;9.290;2023-01-31T07:24:18;98835.03;;;-4.32;76.89
43741;BME280;29352;48.708;9.290;2023-01-31T07:26:43;98835.72;;;-3.75;75.10
43741;BME280;29352;48.708;9.290;2023-01-31T07:29:09;98832.28;;;-3.63;74.81
43741;BME280;29352;48.708;9.290;2023-01-31T07:31:36;98831.53;;;-3.01;72.90
43741;BME280;29352;48.708;9.290;2023-01-31T07:34:02;98820.00;;;-2.25;70.57
43741;BME280;29352;48.708;9.290;2023-01-31T07:36:28;98836.50;;;-2.01;70.00
43741;BME280;29352;48.708;9.290;2023-01-31T07:38:56;98831.19;;;-1.88;68.94
43741;BME280;29352;48.708;9.290;2023-01-31T07:41:25;98836.59;;;-1.32;67.55
43741;BME280;29352;48.708;9.290;2023-01-31T07:43:51;98840.75;;;-0.73;67.07
43741;BME280;29352;48.708;9.290;2023-01-31T07:46:17;98837.25;;;-0.62;65.77
43741;BME280;29352;48.708;9.290;2023-01-31T07:48:43;98846.84;;;-0.84;65.71
43741;BME280;29352;48.708;9.290;2023-01-31T07:51:09;98848.22;;;-0.68;65.88
43741;BME280;29352;48.708;9.290;2023-01-31T07:53:38;98844.53;;;-0.11;63.90
43741;BME280;29352;48.708;9.290;2023-01-31T07:56:12;98846.72;;;0.37;63.38
43741;BME280;29352;48.708;9.290;2023-01-31T07:58:41;98845.88;;;0.78;62.02
43741;BME280;29352;48.708;9.290;2023-01-31T08:01:17;98841.00;;;1.54;60.76
43741;BME280;29352;48.708;9.290;2023-01-31T08:04:05;98828.72;;;1.74;60.25
43741;BME280;29352;48.708;9.290;2023-01-31T08:06:33;98841.88;;;0.53;61.66
43741;BME280;29352;48.708;9.290;2023-01-31T08:09:00;98843.13;;;1.20;61.24
43741;BME280;29352;48.708;9.290;2023-01-31T08:11:26;98841.31;;;1.80;60.34
43741;BME280;29352;48.708;9.290;2023-01-31T08:13:53;98845.75;;;1.80;59.40
43741;BME280;29352;48.708;9.290;2023-01-31T08:16:19;98835.66;;;2.04;59.40
43741;BME280;29352;48.708;9.290;2023-01-31T08:18:46;98839.72;;;1.99;58.81
43741;BME280;29352;48.708;9.290;2023-01-31T08:21:14;98834.09;;;2.50;57.80
43741;BME280;29352;48.708;9.290;2023-01-31T08:23:40;98833.34;;;3.15;56.64
43741;BME280;29352;48.708;9.290;2023-01-31T08:26:10;98833.41;;;3.32;56.03
43741;BME280;29352;48.708;9.290;2023-01-31T08:28:40;98828.69;;;3.54;56.22
43741;BME280;29352;48.708;9.290;2023-01-31T08:31:12;98834.03;;;3.72;55.00
43741;BME280;29352;48.708;9.290;2023-01-31T08:33:40;98828.75;;;3.72;55.07
43741;BME280;29352;48.708;9.290;2023-01-31T08:36:09;98828.34;;;4.20;54.65
43741;BME280;29352;48.708;9.290;2023-01-31T08:38:39;98831.44;;;4.16;54.70
43741;BME280;29352;48.708;9.290;2023-01-31T08:41:05;98838.19;;;2.82;56.72
43741;BME280;29352;48.708;9.290;2023-01-31T08:43:30;98821.28;;;2.75;56.66
43741;BME280;29352;48.708;9.290;2023-01-31T08:45:56;98838.78;;;3.13;56.22
43741;BME280;29352;48.708;9.290;2023-01-31T08:48:22;98825.97;;;2.24;57.14
43741;BME280;29352;48.708;9.290;2023-01-31T08:50:47;98822.97;;;1.50;58.54
43741;BME280;29352;48.708;9.290;2023-01-31T08:53:12;98825.06;;;1.36;59.16
43741;BME280;29352;48.708;9.290;2023-01-31T08:55:38;98821.53;;;0.55;60.44
43741;BME280;29352;48.708;9.290;2023-01-31T08:58:03;98820.97;;;-0.23;61.99
43741;BME280;29352;48.708;9.290;2023-01-31T09:00:30;98823.97;;;-0.38;63.31
43741;BME280;29352;48.708;9.290;2023-01-31T09:02:58;98830.34;;;-0.20;63.80
43741;BME280;29352;48.708;9.290;2023-01-31T09:05:27;98818.56;;;-0.58;64.33
43741;BME280;29352;48.708;9.290;2023-01-31T09:07:55;98821.00;;;-0.02;63.06
43741;BME280;29352;48.708;9.290;2023-01-31T09:10:21;98825.09;;;-0.09;62.78
43741;BME280;29352;48.708;9.290;2023-01-31T09:12:47;98826.50;;;-0.05;62.55
43741;BME280;29352;48.708;9.290;2023-01-31T09:15:13;98829.16;;;-0.16;63.06
43741;BME280;29352;48.708;9.290;2023-01-31T09:17:39;98835.00;;;-0.24;62.88
43741;BME280;29352;48.708;9.290;2023-01-31T09:20:06;98828.06;;;-0.45;63.38
43741;BME280;29352;48.708;9.290;2023-01-31T09:22:34;98828.66;;;0.43;62.49
43741;BME280;29352;48.708;9.290;2023-01-31T09:25:00;98829.00;;;0.81;60.77
43741;BME280;29352;48.708;9.290;2023-01-31T09:27:27;98835.78;;;0.83;60.49
43741;BME280;29352;48.708;9.290;2023-01-31T09:29:53;98829.34;;;0.97;60.43
43741;BME280;29352;48.708;9.290;2023-01-31T09:32:19;98811.66;;;1.59;59.23
43741;BME280;29352;48.708;9.290;2023-01-31T09:34:46;98815.97;;;1.79;59.11
43741;BME280;29352;48.708;9.290;2023-01-31T09:37:16;98819.41;;;1.51;58.91
43741;BME280;29352;48.708;9.290;2023-01-31T09:39:42;98818.06;;;1.16;59.30
43741;BME280;29352;48.708;9.290;2023-01-31T09:45:06;98821.00;;;0.82;60.19
43741;BME280;29352;48.708;9.290;2023-01-31T09:47:46;98823.66;;;0.40;60.77
43741;BME280;29352;48.708;9.290;2023-01-31T09:50:34;98813.56;;;0.04;61.49
43741;BME280;29352;48.708;9.290;2023-01-31T09:53:04;98817.00;;;-0.60;63.11
43741;BME280;29352;48.708;9.290;2023-01-31T10:01:35;98810.38;;;0.21;60.88
43741;BME280;29352;48.708;9.290;2023-01-31T10:07:08;98825.34;;;-0.12;61.85
43741;BME280;29352;48.708;9.290;2023-01-31T10:09:54;98817.78;;;-0.05;62.30
43741;BME280;29352;48.708;9.290;2023-01-31T10:12:35;98818.81;;;-0.61;62.83
43741;BME280;29352;48.708;9.290;2023-01-31T10:15:16;98826.66;;;-0.72;63.35
43741;BME280;29352;48.708;9.290;2023-01-31T10:21:23;98832.59;;;-0.59;64.04
43741;BME280;29352;48.708;9.290;2023-01-31T10:23:56;98833.72;;;-0.84;63.94
43741;BME280;29352;48.708;9.290;2023-01-31T10:26:30;98832.56;;;-1.02;64.32
43741;BME280;29352;48.708;9.290;2023-01-31T10:39:43;98812.50;;;-1.59;64.44
43741;BME280;29352;48.708;9.290;2023-01-31T10:45:18;98812.31;;;-1.23;65.13
43741;BME280;29352;48.708;9.290;2023-01-31T10:47:53;98797.22;;;0.32;62.63
43741;BME280;29352;48.708;9.290;2023-01-31T10:56:41;98795.13;;;0.26;61.21
43741;BME280;29352;48.708;9.290;2023-01-31T10:59:32;98793.66;;;0.64;60.76
43741;BME280;29352;48.708;9.290;2023-01-31T11:02:02;98803.63;;;0.70;60.30
43741;BME280;29352;48.708;9.290;2023-01-31T11:04:37;98804.75;;;0.77;59.32
43741;BME280;29352;48.708;9.290;2023-01-31T11:07:07;98800.34;;;0.47;60.62
43741;BME280;29352;48.708;9.290;2023-01-31T11:09:39;98793.53;;;0.03;61.56
43741;BME280;29352;48.708;9.290;2023-01-31T11:12:08;98793.97;;;0.08;61.28
43741;BME280;29352;48.708;9.290;2023-01-31T11:14:34;98792.25;;;-0.35;61.67
43741;BME280;29352;48.708;9.290;2023-01-31T11:17:14;98799.16;;;-0.66;63.09
43741;BME280;29352;48.708;9.290;2023-01-31T11:19:49;98776.53;;;-0.35;63.01
43741;BME280;29352;48.708;9.290;2023-01-31T11:22:30;98772.28;;;-0.48;62.39
43741;BME280;29352;48.708;9.290;2023-01-31T11:25:01;98754.97;;;0.03;61.80
43741;BME280;29352;48.708;9.290;2023-01-31T11:30:24;98753.78;;;-0.46;62.68
43741;BME280;29352;48.708;9.290;2023-01-31T11:32:53;98758.94;;;-0.24;62.35
43741;BME280;29352;48.708;9.290;2023-01-31T11:37:55;98757.84;;;-0.85;63.43
43741;BME280;29352;48.708;9.290;2023-01-31T11:40:32;98744.09;;;-0.66;62.74
43741;BME280;29352;48.708;9.290;2023-01-31T11:43:23;98742.84;;;-0.95;63.44
43741;BME280;29352;48.708;9.290;2023-01-31T11:45:58;98732.81;;;-0.78;63.70
43741;BME280;29352;48.708;9.290;2023-01-31T11:48:44;98723.69;;;-1.18;63.65
43741;BME280;29352;48.708;9.290;2023-01-31T11:51:24;98721.06;;;-0.63;63.01
43741;BME280;29352;48.708;9.290;2023-01-31T11:53:55;98725.72;;;-0.99;63.54
43741;BME280;29352;48.708;9.290;2023-01-31T11:56:26;98728.09;;;-1.07;63.72
43741;BME280;29352;48.708;9.290;2023-01-31T11:59:00;98719.56;;;-1.20;63.23
43741;BME280;29352;48.708;9.290;2023-01-31T12:01:45;98719.06;;;-1.14;63.40
43741;BME280;29352;48.708;9.290;2023-01-31T12:04:22;98714.53;;;-1.34;64.04
43741;BME280;29352;48.708;9.290;2023-01-31T12:09:39;98705.47;;;-1.08;64.31
43741;BME280;29352;48.708;9.290;2023-01-31T12:15:00;98724.53;;;-1.06;64.60
43741;BME280;29352;48.708;9.290;2023-01-31T12:17:33;98719.25;;;-0.95;64.38
43741;BME280;29352;48.708;9.290;2023-01-31T12:20:37;98713.81;;;-1.03;63.95
43741;BME280;29352;48.708;9.290;2023-01-31T12:23:30;98699.19;;;-1.28;63.67
43741;BME280;29352;48.708;9.290;2023-01-31T12:29:04;98706.06;;;-1.04;63.53
43741;BME280;29352;48.708;9.290;2023-01-31T12:37:29;98678.81;;;-1.24;63.40
43741;BME280;29352;48.708;9.290;2023-01-31T12:46:29;98664.88;;;-0.49;62.80
43741;BME280;29352;48.708;9.290;2023-01-31T12:49:21;98644.97;;;-0.52;62.12
43741;BME280;29352;48.708;9.290;2023-01-31T12:57:41;98620.78;;;-1.40;62.48
43741;BME280;29352;48.708;9.290;2023-01-31T13:00:31;98624.00;;;-1.48;62.94
43741;BME280;29352;48.708;9.290;2023-01-31T13:03:36;98634.44;;;-1.26;62.30
43741;BME280;29352;48.708;9.290;2023-01-31T13:08:44;98655.78;;;-1.75;64.57
43741;BME280;29352;48.708;9.290;2023-01-31T13:11:23;98651.47;;;-1.87;63.73
43741;BME280;29352;48.708;9.290;2023-01-31T13:13:59;98652.31;;;-2.21;64.80
43741;BME280;29352;48.708;9.290;2023-01-31T13:16:33;98642.53;;;-2.30;64.83
43741;BME280;29352;48.708;9.290;2023-01-31T13:19:05;98637.16;;;-2.28;64.72
43741;BME280;29352;48.708;9.290;2023-01-31T13:21:44;98628.75;;;-1.98;65.03
43741;BME280;29352;48.708;9.290;2023-01-31T13:24:21;98634.56;;;-2.28;65.38
43741;BME280;29352;48.708;9.290;2023-01-31T13:27:08;98626.25;;;-2.11;65.02
43741;BME280;29352;48.708;9.290;2023-01-31T13:33:28;98625.66;;;-2.15;65.53
43741;BME280;29352;48.708;9.290;2023-01-31T13:36:07;98630.28;;;-2.29;65.28
43741;BME280;29352;48.708;9.290;2023-01-31T13:38:43;98617.72;;;-2.13;65.84
43741;BME280;29352;48.708;9.290;2023-01-31T13:41:25;98628.56;;;-2.42;65.26
43741;BME280;29352;48.708;9.290;2023-01-31T13:43:59;98616.75;;;-2.34;66.00
43741;BME280;29352;48.708;9.290;2023-01-31T13:46:37;98619.97;;;-2.08;65.25
43741;BME280;29352;48.708;9.290;2023-01-31T13:50:07;98613.63;;;-2.40;65.97
43741;BME280;29352;48.708;9.290;2023-01-31T13:52:48;98622.44;;;-2.29;66.38
43741;BME280;29352;48.708;9.290;2023-01-31T13:55:30;98631.56;;;-2.46;66.36
43741;BME280;29352;48.708;9.290;2023-01-31T13:58:17;98636.19;;;-2.39;66.00
43741;BME280;29352;48.708;9.290;2023-01-31T14:00:49;98623.31;;;-2.64;66.47
43741;BME280;29352;48.708;9.290;2023-01-31T14:03:24;98611.06;;;-2.75;66.93
43741;BME280;29352;48.708;9.290;2023-01-31T14:06:02;98620.88;;;-2.43;66.74
43741;BME280;29352;48.708;9.290;2023-01-31T14:08:56;98635.34;;;-2.50;66.91
43741;BME280;29352;48.708;9.290;2023-01-31T14:16:41;98619.75;;;-2.63;67.56
43741;BME280;29352;48.708;9.290;2023-01-31T14:19:33;98635.81;;;-2.56;67.16
43741;BME280;29352;48.708;9.290;2023-01-31T14:22:24;98620.50;;;-2.85;67.58
43741;BME280;29352;48.708;9.290;2023-01-31T14:49:08;98572.50;;;-2.95;69.22
43741;BME280;29352;48.708;9.290;2023-01-31T14:57:44;98569.59;;;-3.39;70.49
43741;BME280;29352;48.708;9.290;2023-01-31T15:02:52;98574.53;;;-3.23;70.09
43741;BME280;29352;48.708;9.290;2023-01-31T15:13:43;98557.09;;;-3.22;70.28
43741;BME280;29352;48.708;9.290;2023-01-31T15:16:23;98567.44;;;-3.21;70.12
43741;BME280;29352;48.708;9.290;2023-01-31T15:19:07;98574.09;;;-3.17;69.90
43741;BME280;29352;48.708;9.290;2023-01-31T15:21:54;98566.97;;;-3.15;69.72
43741;BME280;29352;48.708;9.290;2023-01-31T15:24:33;98581.00;;;-3.04;69.81
43741;BME280;29352;48.708;9.290;2023-01-31T15:27:22;98588.97;;;-3.06;69.89
43741;BME280;29352;48.708;9.290;2023-01-31T15:30:03;98597.84;;;-2.73;69.00
43741;BME280;29352;48.708;9.290;2023-01-31T15:32:42;98611.03;;;-2.86;69.79
43741;BME280;29352;48.708;9.290;2023-01-31T15:35:55;98608.25;;;-2.96;69.70
43741;BME280;29352;48.708;9.290;2023-01-31T15:38:42;98604.50;;;-3.04;69.80
43741;BME280;29352;48.708;9.290;2023-01-31T15:41:38;98603.44;;;-3.13;70.06
43741;BME280;29352;48.708;9.290;2023-01-31T15:44:21;98606.41;;;-2.82;69.60
43741;BME280;29352;48.708;9.290;2023-01-31T15:46:53;98604.50;;;-3.04;70.10
43741;BME280;29352;48.708;9.290;2023-01-31T15:52:11;98608.69;;;-3.02;70.24
43741;BME280;29352;48.708;9.290;2023-01-31T15:54:56;98598.19;;;-3.13;70.60
43741;BME280;29352;48.708;9.290;2023-01-31T15:57:35;98599.38;;;-3.17;70.74
43741;BME280;29352;48.708;9.290;2023-01-31T16:00:04;98593.75;;;-3.24;71.34
43741;BME280;29352;48.708;9.290;2023-01-31T16:02:32;98592.19;;;-3.26;71.66
43741;BME280;29352;48.708;9.290;2023-01-31T16:04:58;98596.28;;;-3.35;71.88
43741;BME280;29352;48.708;9.290;2023-01-31T16:07:27;98611.91;;;-3.22;71.57
43741;BME280;29352;48.708;9.290;2023-01-31T16:09:57;98615.22;;;-3.31;71.82
43741;BME280;29352;48.708;9.290;2023-01-31T16:12:28;98613.66;;;-3.34;72.04
43741;BME280;29352;48.708;9.290;2023-01-31T16:15:03;98618.56;;;-3.18;71.73
43741;BME280;29352;48.708;9.290;2023-01-31T16:17:32;98618.53;;;-3.29;71.29
43741;BME280;29352;48.708;9.290;2023-01-31T16:19:58;98623.41;;;-3.25;71.62
43741;BME280;29352;48.708;9.290;2023-01-31T16:22:27;98623.09;;;-3.20;71.38
43741;BME280;29352;48.708;9.290;2023-01-31T16:25:00;98628.53;;;-3.23;71.69